Aérodrome :
LOGIN :

S'inscrire | Disclaimer

   EN    FR    IT 

 










Légende :    VFR   VFR Marginal   IFR   IFR Intensif   IFR Très Intensif
Visi : 
Plafond : 
>= 8 km
>= 3000ft
5 à 8 km
1000 à 3000 ft
1500m à 5 km
500 à 1000 ft
800 à 1500m
200 à 500 ft
< 800m
< 200 ft
Symboles :   Orages  Brouillard  Fortes neiges  Fortes précipitations  Vent > 20 kt
SIGMETs :   Divers  Orages  Givrage  Turbulence  Onde Orograph.  Cendres Volcan.







- Altitude de l'aérodrome : 1 ft
- Voir les cartes d'approche


EGCK - Caernarfon

DERNIER METAR :
  • 270750Z AUTO 05005KT 9999 -RA BKN030/// BKN044/// 08/06 Q1008

METARs EXPIRÉS :
  • 270720Z AUTO 04006KT 9999 FEW028/// 08/06 Q1008
  • 270650Z AUTO 04004KT 9999 BKN027/// 08/06 Q1008
  • 270620Z AUTO VRB02KT 9999 FEW014/// 07/06 Q1008
  • 270550Z AUTO VRB02KT 9999 -RA SCT026/// BKN040/// 07/06 Q1008
  • 270520Z AUTO 13004KT 9999 -RA BKN026/// OVC044/// 07/06 Q1008

TAF TAF EGCK
Valide du 27 à 06h jusqu'au 27 à 15h UTC


270502Z 2706/2715 11006KT 9999 SCT015
BECMG 2706/2709 8000 -RA
TEMPO 2706/2715 BKN014
PROB30
TEMPO 2708/2713 RA
Pas de NOTAMs connus pour ce terrain.



MET'MAP, la Météo Aéronautique d'un coup d'oeil ! - Copyright ORBIFLY Décembre 2007 - Disclaimer

ORBIFLY MET'MAP TEAM :

Programmation & Développement : Alexandra Zaïnal
Conception & Développement : Baudouin d'Aumeries
Co-Programmation & Développement : Marc-Olivier Méhu
Soutien technique & logistique : Manuel Goepfert

Contact : metmap@orbifly.com




SOURCES & CREDITS :

   NOAA